In Rescue
 
Open Full Screen Window  High Contrast Mode
Wind Gusting 00 knots
18
April 03, 2020 12:10 AM CDT
Present Weather: Mist
Weather Information
Wind Direction
  320 °
Wind Speed
  18 kt (21 mph)
Wind Gust
  00 kt (0 mph)
Altimeter
30.07 in
Visibility
4 SM
Temperature
-07° C
19° F
Dewpoint
-08° C
18° F
Humidity
93%
1hr Rain Fall
00.01 in.
24hr Rain Fall
00.06 in.
Sky Condition
Overcast @ 1,100 ft
MVFR

METAR KMOX 030510Z AUTO 32018KT 4SM BR OVC011 M07/M08 A3007 RMK AO2 P0001

FAA Disclaimer: The data displayed is for advisory purposes only and is not to be used for flight planning or operations.